Time;durP1;ratioP1;P1;durP2;ratioP2;P2;SDS_P1;SDS_P2;PMS_P1;PMS_P2;Temp;Humidity;BMP_temperature;BMP_pressure;BME280_temperature;BME280_humidity;BME280_pressure;Samples;Min_cycle;Max_cycle;Signal;HPM_P1;HPM_P2
2022/09/16 00:08:04;;;;;;;1.13;0.30;;;21.10;54.40;;;;;;20715764;28;20408;-76
2022/09/16 00:18:04;;;;;;;0.65;0.22;;;21.20;54.40;;;;;;20730747;28;20770;-75
2022/09/16 00:28:05;;;;;;;0.90;0.38;;;21.10;54.40;;;;;;20713475;28;20414;-74
2022/09/16 00:38:06;;;;;;;0.55;0.38;;;21.10;54.30;;;;;;20697876;28;20423;-74
2022/09/16 00:48:08;;;;;;;0.93;0.40;;;21.10;54.30;;;;;;20712266;28;20112;-74
2022/09/16 00:58:16;;;;;;;0.73;0.30;;;21.10;54.30;;;;;;20643577;28;20105;-74
2022/09/16 01:08:17;;;;;;;0.90;0.40;;;21.10;54.30;;;;;;20630536;28;20570;-75
2022/09/16 01:18:25;;;;;;;2.25;0.43;;;21.10;54.30;;;;;;20629575;28;20042;-74
2022/09/16 01:28:31;;;;;;;1.95;0.57;;;21.10;54.30;;;;;;20644724;28;20077;-75
2022/09/16 01:38:54;;;;;;;1.02;0.32;;;21.00;54.20;;;;;;21027828;23;20042;-72
2022/09/16 01:49:00;;;;;;;1.10;0.40;;;21.00;54.20;;;;;;20629596;28;20125;-73
2022/09/16 01:59:28;;;;;;;1.67;0.40;;;21.00;54.20;;;;;;20611632;28;20035;-72
2022/09/16 02:09:36;;;;;;;1.23;0.50;;;21.00;54.20;;;;;;20606991;28;20042;-71
2022/09/16 02:19:41;;;;;;;0.47;0.30;;;21.00;54.20;;;;;;20611009;28;20034;-72
2022/09/16 02:29:50;;;;;;;1.05;0.50;;;21.00;54.20;;;;;;20626239;28;20034;-72
2022/09/16 02:39:53;;;;;;;2.00;0.50;;;21.00;54.90;;;;;;20609712;28;20038;-72
2022/09/16 02:50:13;;;;;;;2.03;0.20;;;21.00;54.20;;;;;;20633748;28;20065;-74
2022/09/16 03:00:13;;;;;;;1.75;0.22;;;20.90;54.20;;;;;;20637106;28;20488;-72
2022/09/16 03:10:14;;;;;;;0.20;0.20;;;21.00;54.20;;;;;;20622755;28;20050;-72
2022/09/16 03:20:36;;;;;;;0.55;0.28;;;20.90;54.20;;;;;;20622087;28;20125;-72
2022/09/16 03:31:03;;;;;;;0.52;0.35;;;20.90;54.20;;;;;;20653465;28;20038;-72
2022/09/16 03:41:03;;;;;;;1.77;0.75;;;20.90;54.20;;;;;;20656372;28;20047;-73
2022/09/16 03:51:04;;;;;;;0.82;0.35;;;20.90;54.10;;;;;;20635921;28;20044;-72
2022/09/16 04:01:05;;;;;;;1.05;0.30;;;20.90;54.20;;;;;;20632616;28;20108;-73
2022/09/16 04:11:05;;;;;;;3.95;0.38;;;20.90;54.20;;;;;;20633856;28;20054;-71
2022/09/16 04:21:06;;;;;;;2.20;0.37;;;20.90;54.20;;;;;;20618480;28;20148;-74
2022/09/16 04:31:09;;;;;;;2.22;0.40;;;20.80;54.10;;;;;;20633886;28;20767;-74
2022/09/16 04:41:15;;;;;;;2.85;0.30;;;20.80;54.10;;;;;;20617055;28;20035;-71
2022/09/16 04:51:16;;;;;;;1.52;0.60;;;20.80;54.10;;;;;;20662943;28;20045;-79
2022/09/16 05:01:18;;;;;;;1.95;0.43;;;20.80;54.20;;;;;;20642442;28;20481;-71
2022/09/16 05:11:19;;;;;;;1.25;0.50;;;20.80;54.20;;;;;;20613338;28;20045;-75
2022/09/16 05:21:21;;;;;;;1.27;0.50;;;20.70;54.10;;;;;;20709810;28;20395;-74
2022/09/16 05:31:25;;;;;;;1.33;0.52;;;20.80;54.20;;;;;;20693673;28;20484;-75
2022/09/16 05:41:26;;;;;;;1.85;0.45;;;20.70;54.10;;;;;;20691048;28;20042;-73
2022/09/16 05:51:27;;;;;;;1.45;0.88;;;20.80;54.20;;;;;;20677693;28;20125;-71
2022/09/16 06:01:32;;;;;;;1.33;0.45;;;20.70;54.20;;;;;;20648363;28;20125;-72
2022/09/16 06:11:36;;;;;;;0.82;0.30;;;20.70;54.20;;;;;;20626704;28;20034;-71
2022/09/16 06:21:36;;;;;;;0.70;0.32;;;20.70;54.20;;;;;;20614065;28;20382;-72
2022/09/16 06:31:37;;;;;;;3.08;1.60;;;20.70;54.20;;;;;;20642951;28;20042;-71
2022/09/16 06:41:38;;;;;;;1.70;0.40;;;20.70;54.20;;;;;;20624609;28;20069;-70
2022/09/16 06:51:39;;;;;;;0.30;0.20;;;20.70;54.20;;;;;;20640571;28;20038;-71
2022/09/16 07:01:39;;;;;;;1.05;0.35;;;20.60;54.20;;;;;;20655703;28;20077;-72
2022/09/16 07:11:40;;;;;;;2.03;0.30;;;20.70;54.20;;;;;;20638474;28;20042;-68
2022/09/16 07:21:40;;;;;;;1.42;0.30;;;20.70;53.90;;;;;;20671164;28;20045;-67
2022/09/16 07:31:41;;;;;;;5.57;0.43;;;20.90;53.60;;;;;;20621328;28;20118;-69
2022/09/16 07:41:42;;;;;;;0.77;0.40;;;21.20;52.90;;;;;;20636679;28;20030;-68
2022/09/16 07:51:43;;;;;;;1.05;0.50;;;21.80;51.50;;;;;;20619918;28;20547;-70
2022/09/16 08:01:44;;;;;;;0.90;0.40;;;22.30;50.20;;;;;;20635223;28;20065;-73
2022/09/16 08:11:44;;;;;;;1.75;0.38;;;22.20;49.90;;;;;;20699138;28;20092;-70
2022/09/16 08:21:45;;;;;;;1.90;0.70;;;21.80;50.40;;;;;;20748358;28;20029;-69
2022/09/16 08:31:45;;;;;;;1.60;0.45;;;21.60;51.00;;;;;;20729846;28;20117;-67
2022/09/16 08:42:07;;;;;;;1.23;0.30;;;21.30;51.50;;;;;;20659815;28;20086;-73
2022/09/16 08:52:26;;;;;;;1.92;0.47;;;21.10;51.90;;;;;;20648159;28;20042;-68
2022/09/16 09:02:48;;;;;;;2.17;0.43;;;20.90;52.10;;;;;;20646327;28;20117;-70
2022/09/16 09:13:06;;;;;;;1.00;0.30;;;20.90;52.20;;;;;;20679398;28;20042;-73
2022/09/16 09:23:12;;;;;;;3.70;0.60;;;20.90;52.20;;;;;;20645919;28;20038;-69
2022/09/16 09:33:20;;;;;;;1.65;0.50;;;20.80;52.10;;;;;;20662425;28;20682;-71
2022/09/16 09:43:42;;;;;;;1.77;0.63;;;20.80;51.90;;;;;;20642945;28;20034;-69
2022/09/16 09:53:45;;;;;;;1.65;0.38;;;20.80;51.60;;;;;;20643509;28;20038;-70
2022/09/16 10:03:47;;;;;;;1.75;0.50;;;20.90;51.40;;;;;;20602926;28;20096;-71
2022/09/16 10:14:18;;;;;;;3.03;0.50;;;20.90;51.10;;;;;;20606214;28;20042;-72
2022/09/16 10:24:33;;;;;;;1.88;0.50;;;21.00;51.00;;;;;;20599067;28;20034;-74
2022/09/16 10:34:37;;;;;;;1.40;0.40;;;21.00;50.90;;;;;;20629825;28;20047;-70
2022/09/16 10:44:38;;;;;;;2.00;0.30;;;21.00;50.60;;;;;;20608111;28;20068;-73
2022/09/16 10:54:39;;;;;;;1.45;0.47;;;21.00;50.30;;;;;;20615899;28;20049;-71
2022/09/16 11:05:03;;;;;;;1.60;0.60;;;21.10;50.10;;;;;;20589666;28;20863;-76
2022/09/16 11:15:22;;;;;;;2.42;0.50;;;21.10;49.70;;;;;;20634307;28;20053;-76
2022/09/16 11:25:25;;;;;;;1.42;0.40;;;21.30;49.50;;;;;;20628961;28;20392;-76
2022/09/16 11:36:00;;;;;;;2.25;0.50;;;21.40;49.10;;;;;;20611724;28;20100;-71
2022/09/16 11:46:10;;;;;;;1.52;0.40;;;21.40;48.80;;;;;;20637779;28;20038;-69
2022/09/16 11:56:20;;;;;;;4.13;0.60;;;21.50;48.70;;;;;;20641868;28;20042;-69
2022/09/16 12:06:22;;;;;;;2.58;0.88;;;21.60;48.40;;;;;;20624375;28;20484;-71
2022/09/16 12:16:40;;;;;;;1.38;0.70;;;21.50;48.00;;;;;;20614725;28;20039;-71
2022/09/16 12:26:50;;;;;;;2.38;0.80;;;21.50;47.20;;;;;;20620064;28;20034;-72
2022/09/16 12:37:22;;;;;;;5.07;0.45;;;21.50;46.80;;;;;;20713678;28;20038;-71
2022/09/16 12:47:57;;;;;;;1.75;0.30;;;21.50;46.70;;;;;;20650116;28;20036;-73
2022/09/16 12:58:20;;;;;;;1.90;0.82;;;21.50;46.70;;;;;;20684449;28;20049;-72
2022/09/16 13:08:28;;;;;;;1.65;0.63;;;21.50;46.30;;;;;;20726797;28;20108;-71
2022/09/16 13:18:42;;;;;;;3.28;0.60;;;21.60;46.10;;;;;;20693797;28;20092;-72
2022/09/16 13:28:44;;;;;;;3.63;0.50;;;21.70;46.00;;;;;;20705560;28;20060;-73
2022/09/16 13:38:49;;;;;;;1.58;0.47;;;21.70;45.90;;;;;;20674749;28;20046;-74
2022/09/16 13:49:03;;;;;;;1.55;0.60;;;21.80;45.80;;;;;;20642227;28;20038;-71
2022/09/16 13:59:25;;;;;;;0.75;0.25;;;21.90;45.50;;;;;;20671963;28;20042;-74
2022/09/16 14:09:54;;;;;;;2.50;0.40;;;22.00;45.50;;;;;;20695344;28;20407;-73
2022/09/16 14:19:57;;;;;;;2.63;0.88;;;22.20;45.20;;;;;;20656322;28;20066;-73
2022/09/16 14:29:59;;;;;;;2.33;0.55;;;22.30;44.90;;;;;;20640903;28;20041;-72
2022/09/16 14:40:11;;;;;;;2.53;0.70;;;22.30;44.80;;;;;;20641865;28;20495;-73
2022/09/16 14:50:26;;;;;;;2.83;0.63;;;22.30;44.80;;;;;;20639660;28;20076;-72
2022/09/16 15:00:37;;;;;;;5.35;1.15;;;22.20;44.80;;;;;;20669037;28;20031;-72
2022/09/16 15:10:38;;;;;;;4.25;1.40;;;22.10;44.90;;;;;;20655431;28;20042;-72
2022/09/16 15:20:39;;;;;;;2.42;0.45;;;22.10;45.00;;;;;;20659848;28;20477;-73
2022/09/16 15:30:47;;;;;;;8.80;0.60;;;22.00;45.20;;;;;;20635128;28;20034;-75
2022/09/16 15:41:03;;;;;;;4.18;0.80;;;22.00;45.30;;;;;;20620156;28;20050;-73
2022/09/16 15:51:31;;;;;;;1.90;0.65;;;21.80;45.30;;;;;;20620142;28;20034;-75
2022/09/16 16:01:36;;;;;;;2.47;0.77;;;21.80;45.50;;;;;;20616009;28;20133;-75
2022/09/16 16:11:36;;;;;;;;;;;21.80;45.50;;;;;;20650589;28;20053;-77
2022/09/16 16:21:37;;;;;;;1.33;0.35;;;21.70;45.40;;;;;;20651283;28;20379;-79
2022/09/16 16:31:38;;;;;;;3.13;0.70;;;21.70;45.50;;;;;;20646089;28;20331;-77
2022/09/16 16:41:38;;;;;;;2.10;0.50;;;21.70;45.70;;;;;;20646390;28;20042;-75
2022/09/16 16:51:40;;;;;;;2.47;0.40;;;21.70;46.00;;;;;;20661603;28;20293;-76
2022/09/16 17:01:41;;;;;;;1.60;0.50;;;21.60;46.20;;;;;;20655520;28;20503;-74
2022/09/16 17:11:50;;;;;;;2.22;0.70;;;21.70;46.60;;;;;;20628224;28;20118;-73
2022/09/16 17:21:52;;;;;;;4.00;0.80;;;21.70;46.90;;;;;;20644403;28;20026;-72
2022/09/16 17:31:55;;;;;;;5.65;1.15;;;21.60;47.20;;;;;;20626997;28;20118;-73
2022/09/16 17:41:56;;;;;;;2.25;0.50;;;21.60;47.60;;;;;;20643732;28;20058;-73
2022/09/16 17:51:57;;;;;;;4.45;0.77;;;21.60;47.80;;;;;;20625935;28;20133;-73
2022/09/16 18:01:59;;;;;;;5.00;0.93;;;21.60;48.00;;;;;;20636506;28;20129;-75
2022/09/16 18:11:59;;;;;;;3.78;0.70;;;21.60;48.20;;;;;;20639133;28;20100;-73
2022/09/16 18:22:00;;;;;;;3.05;0.70;;;21.50;48.20;;;;;;20654055;28;20030;-73
2022/09/16 18:32:00;;;;;;;4.88;0.80;;;21.50;48.30;;;;;;20659490;28;20042;-73
2022/09/16 18:42:01;;;;;;;2.30;0.65;;;21.50;48.40;;;;;;20675445;28;20161;-73
2022/09/16 18:52:02;;;;;;;1.80;0.60;;;21.50;48.40;;;;;;20672843;28;20208;-73
2022/09/16 19:02:03;;;;;;;1.73;0.30;;;21.50;48.50;;;;;;20622512;28;20054;-74
2022/09/16 19:12:03;;;;;;;2.13;0.52;;;21.40;48.70;;;;;;20649070;28;20555;-73
2022/09/16 19:22:04;;;;;;;2.63;0.68;;;21.40;48.50;;;;;;20634517;28;20039;-76
2022/09/16 19:32:05;;;;;;;2.53;0.43;;;21.40;48.50;;;;;;20653594;28;20069;-74
2022/09/16 19:42:06;;;;;;;2.38;0.75;;;21.40;48.50;;;;;;20535390;28;20027;-75
2022/09/16 19:52:06;;;;;;;1.10;0.30;;;21.30;48.50;;;;;;20643972;28;20042;-73
2022/09/16 20:02:08;;;;;;;0.65;0.22;;;21.40;48.60;;;;;;20668371;28;20060;-74
2022/09/16 20:12:09;;;;;;;2.88;0.40;;;21.30;48.60;;;;;;20650057;28;20042;-74
2022/09/16 20:22:09;;;;;;;3.45;0.47;;;21.30;48.70;;;;;;20633423;28;20388;-74
2022/09/16 20:32:10;;;;;;;1.92;0.38;;;21.30;48.90;;;;;;20681990;28;20533;-73
2022/09/16 20:42:10;;;;;;;1.50;0.63;;;21.20;49.00;;;;;;20646815;28;20038;-74
2022/09/16 20:52:11;;;;;;;1.17;0.50;;;21.20;49.10;;;;;;20664272;28;20062;-76
2022/09/16 21:02:11;;;;;;;0.70;0.30;;;21.20;49.30;;;;;;20646020;28;20038;-74
2022/09/16 21:12:14;;;;;;;0.38;0.20;;;21.20;49.40;;;;;;20646078;28;20084;-74
2022/09/16 21:22:15;;;;;;;1.08;0.35;;;21.20;49.60;;;;;;20676815;28;20038;-74
2022/09/16 21:32:15;;;;;;;1.20;0.30;;;21.20;49.80;;;;;;20644043;28;20499;-75
2022/09/16 21:42:16;;;;;;;2.47;0.40;;;21.20;50.00;;;;;;20643211;28;20503;-74
2022/09/16 21:52:16;;;;;;;0.90;0.32;;;21.20;50.20;;;;;;20626748;28;20117;-74
2022/09/16 22:02:17;;;;;;;1.10;0.43;;;21.20;50.20;;;;;;20658060;28;20042;-75
2022/09/16 22:12:17;;;;;;;0.60;0.20;;;21.10;50.30;;;;;;20641323;28;20134;-73
2022/09/16 22:22:20;;;;;;;1.52;0.20;;;21.10;50.40;;;;;;20641055;28;20530;-73
2022/09/16 22:32:21;;;;;;;0.93;0.22;;;21.10;50.50;;;;;;20656939;28;20026;-74
2022/09/16 22:42:21;;;;;;;2.03;0.38;;;21.10;50.60;;;;;;20640253;28;20057;-74
2022/09/16 22:52:22;;;;;;;1.83;0.20;;;21.10;50.70;;;;;;20653749;28;20073;-74
2022/09/16 23:02:22;;;;;;;1.30;0.52;;;21.10;50.80;;;;;;20624743;28;20121;-74
2022/09/16 23:12:23;;;;;;;0.93;0.30;;;21.10;50.90;;;;;;20654467;28;20156;-74
2022/09/16 23:22:24;;;;;;;0.43;0.20;;;21.10;51.00;;;;;;20653987;28;20317;-74
2022/09/16 23:32:24;;;;;;;0.52;0.15;;;21.10;51.20;;;;;;20652989;28;20077;-74
2022/09/16 23:42:26;;;;;;;0.05;0.05;;;21.10;51.40;;;;;;20652459;28;20047;-74
2022/09/16 23:52:27;;;;;;;0.50;0.20;;;21.00;51.50;;;;;;20635668;28;20038;-74
